sensor_id;sensor_type;location;lat;lon;timestamp;P1;durP1;ratioP1;P2;durP2;ratioP2
39880;SDS011;25554;44.954;10.068;2022-07-10T00:03:13;4.85;;;3.58;;
39880;SDS011;25554;44.954;10.068;2022-07-10T00:05:40;5.50;;;3.83;;
39880;SDS011;25554;44.954;10.068;2022-07-10T00:08:07;6.72;;;3.80;;
39880;SDS011;25554;44.954;10.068;2022-07-10T00:12:59;8.25;;;4.35;;
39880;SDS011;25554;44.954;10.068;2022-07-10T00:17:52;4.63;;;3.63;;
39880;SDS011;25554;44.954;10.068;2022-07-10T00:22:45;5.93;;;3.47;;
39880;SDS011;25554;44.954;10.068;2022-07-10T00:27:38;4.07;;;3.50;;
39880;SDS011;25554;44.954;10.068;2022-07-10T00:30:05;7.28;;;3.85;;
39880;SDS011;25554;44.954;10.068;2022-07-10T00:32:32;5.57;;;3.42;;
39880;SDS011;25554;44.954;10.068;2022-07-10T00:34:59;3.58;;;3.22;;
39880;SDS011;25554;44.954;10.068;2022-07-10T00:37:27;5.32;;;3.00;;
39880;SDS011;25554;44.954;10.068;2022-07-10T00:39:54;4.00;;;3.60;;
39880;SDS011;25554;44.954;10.068;2022-07-10T00:42:21;6.30;;;3.30;;
39880;SDS011;25554;44.954;10.068;2022-07-10T00:47:13;7.50;;;3.58;;
39880;SDS011;25554;44.954;10.068;2022-07-10T00:49:43;10.10;;;4.55;;
39880;SDS011;25554;44.954;10.068;2022-07-10T00:52:13;4.30;;;3.30;;
39880;SDS011;25554;44.954;10.068;2022-07-10T00:54:42;6.32;;;3.72;;
39880;SDS011;25554;44.954;10.068;2022-07-10T00:57:10;8.57;;;3.42;;
39880;SDS011;25554;44.954;10.068;2022-07-10T00:59:37;7.00;;;3.55;;
39880;SDS011;25554;44.954;10.068;2022-07-10T01:02:04;9.25;;;3.97;;
39880;SDS011;25554;44.954;10.068;2022-07-10T01:04:31;7.13;;;3.72;;
39880;SDS011;25554;44.954;10.068;2022-07-10T01:06:59;4.95;;;3.60;;
39880;SDS011;25554;44.954;10.068;2022-07-10T01:09:26;7.50;;;3.78;;
39880;SDS011;25554;44.954;10.068;2022-07-10T01:11:54;5.55;;;3.78;;
39880;SDS011;25554;44.954;10.068;2022-07-10T01:14:24;6.00;;;3.78;;
39880;SDS011;25554;44.954;10.068;2022-07-10T01:16:52;10.60;;;3.78;;
39880;SDS011;25554;44.954;10.068;2022-07-10T01:19:19;4.03;;;3.67;;
39880;SDS011;25554;44.954;10.068;2022-07-10T01:21:46;5.35;;;4.28;;
39880;SDS011;25554;44.954;10.068;2022-07-10T01:26:38;9.50;;;4.30;;
39880;SDS011;25554;44.954;10.068;2022-07-10T01:29:08;6.53;;;3.63;;
39880;SDS011;25554;44.954;10.068;2022-07-10T01:31:35;5.97;;;3.85;;
39880;SDS011;25554;44.954;10.068;2022-07-10T01:34:06;7.65;;;3.40;;
39880;SDS011;25554;44.954;10.068;2022-07-10T01:36:35;6.10;;;4.30;;
39880;SDS011;25554;44.954;10.068;2022-07-10T01:39:03;6.22;;;3.95;;
39880;SDS011;25554;44.954;10.068;2022-07-10T01:41:29;5.03;;;3.70;;
39880;SDS011;25554;44.954;10.068;2022-07-10T01:43:56;7.38;;;4.28;;
39880;SDS011;25554;44.954;10.068;2022-07-10T01:46:22;6.60;;;4.32;;
39880;SDS011;25554;44.954;10.068;2022-07-10T01:48:49;5.13;;;4.45;;
39880;SDS011;25554;44.954;10.068;2022-07-10T01:51:16;5.90;;;5.10;;
39880;SDS011;25554;44.954;10.068;2022-07-10T01:53:42;6.85;;;4.45;;
39880;SDS011;25554;44.954;10.068;2022-07-10T01:58:36;6.72;;;4.53;;
39880;SDS011;25554;44.954;10.068;2022-07-10T02:01:03;5.82;;;4.20;;
39880;SDS011;25554;44.954;10.068;2022-07-10T02:03:31;5.80;;;4.13;;
39880;SDS011;25554;44.954;10.068;2022-07-10T02:06:16;7.88;;;4.40;;
39880;SDS011;25554;44.954;10.068;2022-07-10T02:08:43;6.07;;;4.55;;
39880;SDS011;25554;44.954;10.068;2022-07-10T02:11:10;8.52;;;4.72;;
39880;SDS011;25554;44.954;10.068;2022-07-10T02:13:38;5.38;;;4.45;;
39880;SDS011;25554;44.954;10.068;2022-07-10T02:16:04;5.20;;;4.72;;
39880;SDS011;25554;44.954;10.068;2022-07-10T02:18:31;7.78;;;4.68;;
39880;SDS011;25554;44.954;10.068;2022-07-10T02:23:24;7.50;;;4.22;;
39880;SDS011;25554;44.954;10.068;2022-07-10T02:28:16;6.32;;;4.07;;
39880;SDS011;25554;44.954;10.068;2022-07-10T02:33:09;6.30;;;4.90;;
39880;SDS011;25554;44.954;10.068;2022-07-10T02:38:02;8.07;;;4.97;;
39880;SDS011;25554;44.954;10.068;2022-07-10T02:42:54;6.00;;;4.35;;
39880;SDS011;25554;44.954;10.068;2022-07-10T02:47:47;7.70;;;5.28;;
39880;SDS011;25554;44.954;10.068;2022-07-10T02:52:40;6.63;;;5.18;;
39880;SDS011;25554;44.954;10.068;2022-07-10T02:57:33;7.97;;;5.30;;
39880;SDS011;25554;44.954;10.068;2022-07-10T03:02:25;6.93;;;5.72;;
39880;SDS011;25554;44.954;10.068;2022-07-10T03:04:52;8.77;;;6.05;;
39880;SDS011;25554;44.954;10.068;2022-07-10T03:09:44;9.15;;;5.90;;
39880;SDS011;25554;44.954;10.068;2022-07-10T03:14:38;7.82;;;5.65;;
39880;SDS011;25554;44.954;10.068;2022-07-10T03:17:04;9.60;;;6.00;;
39880;SDS011;25554;44.954;10.068;2022-07-10T03:24:25;6.90;;;5.50;;
39880;SDS011;25554;44.954;10.068;2022-07-10T03:26:51;9.50;;;6.82;;
39880;SDS011;25554;44.954;10.068;2022-07-10T03:31:44;11.18;;;5.80;;
39880;SDS011;25554;44.954;10.068;2022-07-10T03:36:37;13.27;;;5.60;;
39880;SDS011;25554;44.954;10.068;2022-07-10T03:39:05;7.85;;;5.97;;
39880;SDS011;25554;44.954;10.068;2022-07-10T03:41:32;8.52;;;6.00;;
39880;SDS011;25554;44.954;10.068;2022-07-10T03:46:24;9.05;;;6.07;;
39880;SDS011;25554;44.954;10.068;2022-07-10T03:51:17;7.63;;;5.95;;
39880;SDS011;25554;44.954;10.068;2022-07-10T03:53:44;8.93;;;6.32;;
39880;SDS011;25554;44.954;10.068;2022-07-10T03:56:10;7.90;;;6.65;;
39880;SDS011;25554;44.954;10.068;2022-07-10T03:58:57;9.45;;;7.00;;
39880;SDS011;25554;44.954;10.068;2022-07-10T04:03:49;8.10;;;6.50;;
39880;SDS011;25554;44.954;10.068;2022-07-10T04:08:42;8.77;;;6.50;;
39880;SDS011;25554;44.954;10.068;2022-07-10T04:13:35;10.30;;;6.47;;
39880;SDS011;25554;44.954;10.068;2022-07-10T04:16:02;10.70;;;7.38;;
39880;SDS011;25554;44.954;10.068;2022-07-10T04:18:29;12.88;;;7.15;;
39880;SDS011;25554;44.954;10.068;2022-07-10T04:23:21;8.98;;;6.43;;
39880;SDS011;25554;44.954;10.068;2022-07-10T04:28:14;7.68;;;6.60;;
39880;SDS011;25554;44.954;10.068;2022-07-10T04:33:07;7.82;;;7.00;;
39880;SDS011;25554;44.954;10.068;2022-07-10T04:37:59;10.70;;;7.03;;
39880;SDS011;25554;44.954;10.068;2022-07-10T04:42:52;9.30;;;6.68;;
39880;SDS011;25554;44.954;10.068;2022-07-10T04:47:44;9.18;;;6.25;;
39880;SDS011;25554;44.954;10.068;2022-07-10T04:52:37;7.97;;;6.90;;
39880;SDS011;25554;44.954;10.068;2022-07-10T04:57:30;10.02;;;6.93;;
39880;SDS011;25554;44.954;10.068;2022-07-10T05:02:26;14.57;;;7.40;;
39880;SDS011;25554;44.954;10.068;2022-07-10T05:04:54;8.88;;;7.03;;
39880;SDS011;25554;44.954;10.068;2022-07-10T05:07:21;10.85;;;7.30;;
39880;SDS011;25554;44.954;10.068;2022-07-10T05:12:13;10.02;;;7.65;;
39880;SDS011;25554;44.954;10.068;2022-07-10T05:17:06;9.73;;;7.47;;
39880;SDS011;25554;44.954;10.068;2022-07-10T05:21:58;13.85;;;7.70;;
39880;SDS011;25554;44.954;10.068;2022-07-10T05:26:51;9.77;;;7.82;;
39880;SDS011;25554;44.954;10.068;2022-07-10T05:29:18;16.95;;;7.60;;
39880;SDS011;25554;44.954;10.068;2022-07-10T05:34:10;11.52;;;8.07;;
39880;SDS011;25554;44.954;10.068;2022-07-10T05:39:03;10.13;;;7.88;;
39880;SDS011;25554;44.954;10.068;2022-07-10T05:41:30;13.10;;;7.78;;
39880;SDS011;25554;44.954;10.068;2022-07-10T05:43:58;10.43;;;7.78;;
39880;SDS011;25554;44.954;10.068;2022-07-10T05:46:25;9.38;;;7.93;;
39880;SDS011;25554;44.954;10.068;2022-07-10T05:51:18;9.35;;;7.55;;
39880;SDS011;25554;44.954;10.068;2022-07-10T05:56:10;9.10;;;8.20;;
39880;SDS011;25554;44.954;10.068;2022-07-10T05:58:37;8.35;;;7.43;;
39880;SDS011;25554;44.954;10.068;2022-07-10T06:03:30;11.00;;;7.03;;
39880;SDS011;25554;44.954;10.068;2022-07-10T06:08:25;13.82;;;8.15;;
39880;SDS011;25554;44.954;10.068;2022-07-10T06:10:51;7.80;;;6.97;;
39880;SDS011;25554;44.954;10.068;2022-07-10T06:15:44;9.75;;;6.55;;
39880;SDS011;25554;44.954;10.068;2022-07-10T06:18:11;9.50;;;6.45;;
39880;SDS011;25554;44.954;10.068;2022-07-10T06:23:04;7.72;;;5.45;;
39880;SDS011;25554;44.954;10.068;2022-07-10T06:27:56;7.82;;;5.85;;
39880;SDS011;25554;44.954;10.068;2022-07-10T06:32:49;8.80;;;5.55;;
39880;SDS011;25554;44.954;10.068;2022-07-10T06:35:15;6.70;;;5.15;;
39880;SDS011;25554;44.954;10.068;2022-07-10T06:37:42;5.50;;;4.85;;
39880;SDS011;25554;44.954;10.068;2022-07-10T06:42:37;8.40;;;4.70;;
39880;SDS011;25554;44.954;10.068;2022-07-10T06:45:07;7.18;;;4.68;;
39880;SDS011;25554;44.954;10.068;2022-07-10T06:47:34;6.78;;;5.03;;
39880;SDS011;25554;44.954;10.068;2022-07-10T06:50:19;9.90;;;4.47;;
39880;SDS011;25554;44.954;10.068;2022-07-10T06:52:47;6.57;;;4.82;;
39880;SDS011;25554;44.954;10.068;2022-07-10T06:55:13;7.22;;;5.80;;
39880;SDS011;25554;44.954;10.068;2022-07-10T06:57:40;9.23;;;6.00;;
39880;SDS011;25554;44.954;10.068;2022-07-10T07:00:07;6.13;;;5.50;;
39880;SDS011;25554;44.954;10.068;2022-07-10T07:02:35;11.63;;;5.43;;
39880;SDS011;25554;44.954;10.068;2022-07-10T07:05:02;7.05;;;5.30;;
39880;SDS011;25554;44.954;10.068;2022-07-10T07:07:28;7.00;;;6.32;;
39880;SDS011;25554;44.954;10.068;2022-07-10T07:09:55;6.88;;;5.10;;
39880;SDS011;25554;44.954;10.068;2022-07-10T07:12:21;6.50;;;5.18;;
39880;SDS011;25554;44.954;10.068;2022-07-10T07:14:48;6.70;;;5.05;;
39880;SDS011;25554;44.954;10.068;2022-07-10T07:17:14;7.60;;;5.47;;
39880;SDS011;25554;44.954;10.068;2022-07-10T07:19:47;8.38;;;5.32;;
39880;SDS011;25554;44.954;10.068;2022-07-10T07:22:33;9.00;;;6.10;;
39880;SDS011;25554;44.954;10.068;2022-07-10T07:25:18;8.23;;;5.35;;
39880;SDS011;25554;44.954;10.068;2022-07-10T07:27:45;9.57;;;6.68;;
39880;SDS011;25554;44.954;10.068;2022-07-10T07:30:13;7.22;;;6.10;;
39880;SDS011;25554;44.954;10.068;2022-07-10T07:32:41;10.35;;;5.32;;
39880;SDS011;25554;44.954;10.068;2022-07-10T07:35:09;8.80;;;5.63;;
39880;SDS011;25554;44.954;10.068;2022-07-10T07:37:40;9.23;;;5.25;;
39880;SDS011;25554;44.954;10.068;2022-07-10T07:40:08;11.40;;;4.75;;
39880;SDS011;25554;44.954;10.068;2022-07-10T07:42:37;4.63;;;3.70;;
39880;SDS011;25554;44.954;10.068;2022-07-10T07:45:04;10.82;;;4.38;;
39880;SDS011;25554;44.954;10.068;2022-07-10T07:47:39;4.38;;;3.97;;
39880;SDS011;25554;44.954;10.068;2022-07-10T07:50:13;7.38;;;5.03;;
39880;SDS011;25554;44.954;10.068;2022-07-10T07:52:41;4.75;;;3.28;;
39880;SDS011;25554;44.954;10.068;2022-07-10T07:55:08;6.40;;;4.50;;
39880;SDS011;25554;44.954;10.068;2022-07-10T07:57:36;6.43;;;3.90;;
39880;SDS011;25554;44.954;10.068;2022-07-10T08:00:03;4.60;;;3.33;;
39880;SDS011;25554;44.954;10.068;2022-07-10T08:02:37;3.70;;;3.40;;
39880;SDS011;25554;44.954;10.068;2022-07-10T08:05:05;5.22;;;4.57;;
39880;SDS011;25554;44.954;10.068;2022-07-10T08:07:42;6.60;;;3.80;;
39880;SDS011;25554;44.954;10.068;2022-07-10T08:10:12;3.45;;;2.75;;
39880;SDS011;25554;44.954;10.068;2022-07-10T08:12:39;6.03;;;3.53;;
39880;SDS011;25554;44.954;10.068;2022-07-10T08:15:07;7.22;;;3.90;;
39880;SDS011;25554;44.954;10.068;2022-07-10T08:17:34;5.43;;;3.35;;
39880;SDS011;25554;44.954;10.068;2022-07-10T08:20:01;7.13;;;2.80;;
39880;SDS011;25554;44.954;10.068;2022-07-10T08:22:31;6.88;;;3.53;;
39880;SDS011;25554;44.954;10.068;2022-07-10T08:24:59;2.88;;;2.00;;
39880;SDS011;25554;44.954;10.068;2022-07-10T08:27:25;7.28;;;2.25;;
39880;SDS011;25554;44.954;10.068;2022-07-10T08:29:53;3.88;;;1.98;;
39880;SDS011;25554;44.954;10.068;2022-07-10T08:32:19;4.32;;;2.20;;
39880;SDS011;25554;44.954;10.068;2022-07-10T08:34:46;5.20;;;1.85;;
39880;SDS011;25554;44.954;10.068;2022-07-10T08:37:14;4.72;;;2.13;;
39880;SDS011;25554;44.954;10.068;2022-07-10T08:39:40;4.70;;;1.75;;
39880;SDS011;25554;44.954;10.068;2022-07-10T08:42:07;6.22;;;2.28;;
39880;SDS011;25554;44.954;10.068;2022-07-10T08:44:36;5.32;;;2.15;;
39880;SDS011;25554;44.954;10.068;2022-07-10T08:47:03;4.78;;;3.08;;
39880;SDS011;25554;44.954;10.068;2022-07-10T08:49:30;3.75;;;2.65;;
39880;SDS011;25554;44.954;10.068;2022-07-10T08:54:41;3.17;;;2.17;;
39880;SDS011;25554;44.954;10.068;2022-07-10T08:57:08;3.92;;;2.35;;
39880;SDS011;25554;44.954;10.068;2022-07-10T08:59:36;3.45;;;2.05;;
39880;SDS011;25554;44.954;10.068;2022-07-10T09:02:02;3.20;;;1.70;;
39880;SDS011;25554;44.954;10.068;2022-07-10T09:04:29;3.47;;;1.60;;
39880;SDS011;25554;44.954;10.068;2022-07-10T09:06:55;2.97;;;1.83;;
39880;SDS011;25554;44.954;10.068;2022-07-10T09:09:22;6.72;;;1.77;;
39880;SDS011;25554;44.954;10.068;2022-07-10T09:11:54;5.35;;;1.98;;
39880;SDS011;25554;44.954;10.068;2022-07-10T09:14:27;1.77;;;1.58;;
39880;SDS011;25554;44.954;10.068;2022-07-10T09:16:54;4.68;;;1.88;;
39880;SDS011;25554;44.954;10.068;2022-07-10T09:19:21;5.60;;;2.28;;
39880;SDS011;25554;44.954;10.068;2022-07-10T09:21:52;4.20;;;1.65;;
39880;SDS011;25554;44.954;10.068;2022-07-10T09:24:34;1.65;;;1.52;;
39880;SDS011;25554;44.954;10.068;2022-07-10T09:27:03;4.72;;;1.70;;
39880;SDS011;25554;44.954;10.068;2022-07-10T09:29:30;5.18;;;1.50;;
39880;SDS011;25554;44.954;10.068;2022-07-10T09:31:58;1.52;;;1.23;;
39880;SDS011;25554;44.954;10.068;2022-07-10T09:37:27;5.40;;;1.70;;
39880;SDS011;25554;44.954;10.068;2022-07-10T09:42:31;1.55;;;1.40;;
39880;SDS011;25554;44.954;10.068;2022-07-10T09:47:38;3.92;;;1.17;;
39880;SDS011;25554;44.954;10.068;2022-07-10T09:50:22;2.13;;;1.08;;
39880;SDS011;25554;44.954;10.068;2022-07-10T09:52:50;1.25;;;1.00;;
39880;SDS011;25554;44.954;10.068;2022-07-10T09:55:19;2.25;;;1.08;;
39880;SDS011;25554;44.954;10.068;2022-07-10T09:57:54;2.60;;;1.45;;
39880;SDS011;25554;44.954;10.068;2022-07-10T10:00:23;1.55;;;1.10;;
39880;SDS011;25554;44.954;10.068;2022-07-10T10:02:55;3.40;;;0.90;;
39880;SDS011;25554;44.954;10.068;2022-07-10T10:05:28;2.90;;;0.95;;
39880;SDS011;25554;44.954;10.068;2022-07-10T10:08:47;2.45;;;1.27;;
39880;SDS011;25554;44.954;10.068;2022-07-10T10:10:58;2.78;;;2.00;;
39880;SDS011;25554;44.954;10.068;2022-07-10T10:13:27;1.58;;;1.10;;
39880;SDS011;25554;44.954;10.068;2022-07-10T10:15:54;5.25;;;1.23;;
39880;SDS011;25554;44.954;10.068;2022-07-10T10:18:22;5.10;;;1.40;;
39880;SDS011;25554;44.954;10.068;2022-07-10T10:20:53;5.10;;;1.60;;
39880;SDS011;25554;44.954;10.068;2022-07-10T10:23:23;3.53;;;1.38;;
39880;SDS011;25554;44.954;10.068;2022-07-10T10:25:55;6.88;;;4.57;;
39880;SDS011;25554;44.954;10.068;2022-07-10T10:28:25;2.28;;;1.40;;
39880;SDS011;25554;44.954;10.068;2022-07-10T10:30:52;3.20;;;1.25;;
39880;SDS011;25554;44.954;10.068;2022-07-10T10:35:58;1.83;;;0.93;;
39880;SDS011;25554;44.954;10.068;2022-07-10T10:46:35;1.60;;;1.50;;
39880;SDS011;25554;44.954;10.068;2022-07-10T10:52:18;1.65;;;1.48;;
39880;SDS011;25554;44.954;10.068;2022-07-10T10:55:19;3.35;;;2.22;;
39880;SDS011;25554;44.954;10.068;2022-07-10T10:57:40;2.63;;;1.30;;
39880;SDS011;25554;44.954;10.068;2022-07-10T11:00:13;1.30;;;1.20;;
39880;SDS011;25554;44.954;10.068;2022-07-10T11:02:41;2.78;;;1.20;;
39880;SDS011;25554;44.954;10.068;2022-07-10T11:15:26;2.25;;;1.33;;
39880;SDS011;25554;44.954;10.068;2022-07-10T11:17:58;2.97;;;1.50;;
39880;SDS011;25554;44.954;10.068;2022-07-10T11:20:51;3.33;;;1.63;;
39880;SDS011;25554;44.954;10.068;2022-07-10T11:31:22;3.60;;;1.67;;
39880;SDS011;25554;44.954;10.068;2022-07-10T11:33:49;2.70;;;1.50;;
39880;SDS011;25554;44.954;10.068;2022-07-10T11:36:19;1.98;;;1.05;;
39880;SDS011;25554;44.954;10.068;2022-07-10T11:39:00;7.50;;;2.75;;
39880;SDS011;25554;44.954;10.068;2022-07-10T11:41:31;4.53;;;2.22;;
39880;SDS011;25554;44.954;10.068;2022-07-10T11:44:01;2.03;;;1.38;;
39880;SDS011;25554;44.954;10.068;2022-07-10T11:46:33;1.17;;;1.15;;
39880;SDS011;25554;44.954;10.068;2022-07-10T11:49:04;1.95;;;1.17;;
39880;SDS011;25554;44.954;10.068;2022-07-10T11:51:32;1.70;;;1.23;;
39880;SDS011;25554;44.954;10.068;2022-07-10T11:56:34;2.15;;;1.20;;
39880;SDS011;25554;44.954;10.068;2022-07-10T11:59:03;1.65;;;1.15;;
39880;SDS011;25554;44.954;10.068;2022-07-10T12:01:35;4.40;;;1.73;;
39880;SDS011;25554;44.954;10.068;2022-07-10T12:04:08;2.88;;;1.40;;
39880;SDS011;25554;44.954;10.068;2022-07-10T12:06:36;3.60;;;1.23;;
39880;SDS011;25554;44.954;10.068;2022-07-10T12:09:08;1.15;;;1.02;;
39880;SDS011;25554;44.954;10.068;2022-07-10T12:12:01;2.67;;;1.38;;
39880;SDS011;25554;44.954;10.068;2022-07-10T12:14:30;2.05;;;1.15;;
39880;SDS011;25554;44.954;10.068;2022-07-10T12:16:57;2.72;;;1.10;;
39880;SDS011;25554;44.954;10.068;2022-07-10T12:19:25;1.90;;;1.13;;
39880;SDS011;25554;44.954;10.068;2022-07-10T12:21:58;1.15;;;1.05;;
39880;SDS011;25554;44.954;10.068;2022-07-10T12:24:26;2.22;;;1.20;;
39880;SDS011;25554;44.954;10.068;2022-07-10T12:26:53;1.40;;;1.10;;
39880;SDS011;25554;44.954;10.068;2022-07-10T12:29:22;2.63;;;1.20;;
39880;SDS011;25554;44.954;10.068;2022-07-10T12:31:51;1.10;;;0.90;;
39880;SDS011;25554;44.954;10.068;2022-07-10T12:34:34;3.28;;;1.45;;
39880;SDS011;25554;44.954;10.068;2022-07-10T12:37:08;2.05;;;1.08;;
39880;SDS011;25554;44.954;10.068;2022-07-10T12:39:51;2.70;;;1.20;;
39880;SDS011;25554;44.954;10.068;2022-07-10T12:42:25;1.58;;;1.00;;
39880;SDS011;25554;44.954;10.068;2022-07-10T12:44:53;2.20;;;1.00;;
39880;SDS011;25554;44.954;10.068;2022-07-10T12:47:20;3.60;;;1.48;;
39880;SDS011;25554;44.954;10.068;2022-07-10T12:49:51;1.95;;;1.23;;
39880;SDS011;25554;44.954;10.068;2022-07-10T12:52:32;1.55;;;1.02;;
39880;SDS011;25554;44.954;10.068;2022-07-10T12:55:05;5.93;;;1.23;;
39880;SDS011;25554;44.954;10.068;2022-07-10T13:00:17;1.77;;;0.88;;
39880;SDS011;25554;44.954;10.068;2022-07-10T13:02:46;3.17;;;1.45;;
39880;SDS011;25554;44.954;10.068;2022-07-10T13:05:24;2.97;;;1.17;;
39880;SDS011;25554;44.954;10.068;2022-07-10T13:08:07;3.20;;;1.10;;
39880;SDS011;25554;44.954;10.068;2022-07-10T13:10:41;2.50;;;1.10;;
39880;SDS011;25554;44.954;10.068;2022-07-10T13:13:09;2.03;;;1.20;;
39880;SDS011;25554;44.954;10.068;2022-07-10T13:15:36;3.63;;;1.10;;
39880;SDS011;25554;44.954;10.068;2022-07-10T13:18:23;1.70;;;1.10;;
39880;SDS011;25554;44.954;10.068;2022-07-10T13:20:51;1.73;;;1.08;;
39880;SDS011;25554;44.954;10.068;2022-07-10T13:23:19;1.65;;;1.10;;
39880;SDS011;25554;44.954;10.068;2022-07-10T13:25:48;2.35;;;1.40;;
39880;SDS011;25554;44.954;10.068;2022-07-10T13:28:15;1.15;;;1.05;;
39880;SDS011;25554;44.954;10.068;2022-07-10T13:30:45;3.67;;;1.30;;
39880;SDS011;25554;44.954;10.068;2022-07-10T13:33:12;5.60;;;1.50;;
39880;SDS011;25554;44.954;10.068;2022-07-10T13:35:38;2.15;;;1.73;;
39880;SDS011;25554;44.954;10.068;2022-07-10T13:38:05;1.88;;;1.20;;
39880;SDS011;25554;44.954;10.068;2022-07-10T13:40:33;2.67;;;1.38;;
39880;SDS011;25554;44.954;10.068;2022-07-10T13:43:01;2.47;;;1.40;;
39880;SDS011;25554;44.954;10.068;2022-07-10T13:45:28;2.13;;;1.13;;
39880;SDS011;25554;44.954;10.068;2022-07-10T13:47:59;2.85;;;1.63;;
39880;SDS011;25554;44.954;10.068;2022-07-10T13:50:25;1.25;;;1.10;;
39880;SDS011;25554;44.954;10.068;2022-07-10T13:52:51;4.10;;;1.30;;
39880;SDS011;25554;44.954;10.068;2022-07-10T13:55:18;1.23;;;1.13;;
39880;SDS011;25554;44.954;10.068;2022-07-10T13:57:44;2.30;;;1.00;;
39880;SDS011;25554;44.954;10.068;2022-07-10T14:00:11;1.98;;;1.00;;
39880;SDS011;25554;44.954;10.068;2022-07-10T14:02:37;3.42;;;1.00;;
39880;SDS011;25554;44.954;10.068;2022-07-10T14:05:04;7.35;;;3.53;;
39880;SDS011;25554;44.954;10.068;2022-07-10T14:07:31;1.42;;;1.02;;
39880;SDS011;25554;44.954;10.068;2022-07-10T14:09:57;2.53;;;1.10;;
39880;SDS011;25554;44.954;10.068;2022-07-10T14:12:24;1.17;;;0.80;;
39880;SDS011;25554;44.954;10.068;2022-07-10T14:14:51;2.33;;;0.90;;
39880;SDS011;25554;44.954;10.068;2022-07-10T14:17:17;1.52;;;1.00;;
39880;SDS011;25554;44.954;10.068;2022-07-10T14:19:44;1.63;;;0.98;;
39880;SDS011;25554;44.954;10.068;2022-07-10T14:22:10;1.52;;;1.02;;
39880;SDS011;25554;44.954;10.068;2022-07-10T14:24:37;3.17;;;0.90;;
39880;SDS011;25554;44.954;10.068;2022-07-10T14:27:04;1.27;;;0.90;;
39880;SDS011;25554;44.954;10.068;2022-07-10T14:29:31;1.75;;;0.90;;
39880;SDS011;25554;44.954;10.068;2022-07-10T14:31:58;1.83;;;1.20;;
39880;SDS011;25554;44.954;10.068;2022-07-10T14:34:25;2.05;;;1.40;;
39880;SDS011;25554;44.954;10.068;2022-07-10T14:36:54;2.28;;;0.90;;
39880;SDS011;25554;44.954;10.068;2022-07-10T14:39:20;1.40;;;0.73;;
39880;SDS011;25554;44.954;10.068;2022-07-10T14:41:47;3.60;;;1.00;;
39880;SDS011;25554;44.954;10.068;2022-07-10T14:44:13;0.75;;;0.75;;
39880;SDS011;25554;44.954;10.068;2022-07-10T14:46:40;5.07;;;1.40;;
39880;SDS011;25554;44.954;10.068;2022-07-10T14:49:08;1.33;;;0.80;;
39880;SDS011;25554;44.954;10.068;2022-07-10T14:51:35;1.73;;;0.93;;
39880;SDS011;25554;44.954;10.068;2022-07-10T14:54:02;2.47;;;0.80;;
39880;SDS011;25554;44.954;10.068;2022-07-10T14:56:28;1.33;;;0.70;;
39880;SDS011;25554;44.954;10.068;2022-07-10T14:58:55;1.33;;;0.80;;
39880;SDS011;25554;44.954;10.068;2022-07-10T15:01:22;3.92;;;1.00;;
39880;SDS011;25554;44.954;10.068;2022-07-10T15:03:48;0.93;;;0.80;;
39880;SDS011;25554;44.954;10.068;2022-07-10T15:06:14;2.03;;;0.80;;
39880;SDS011;25554;44.954;10.068;2022-07-10T15:08:41;1.13;;;0.80;;
39880;SDS011;25554;44.954;10.068;2022-07-10T15:11:08;0.95;;;0.82;;
39880;SDS011;25554;44.954;10.068;2022-07-10T15:13:34;4.47;;;1.02;;
39880;SDS011;25554;44.954;10.068;2022-07-10T15:16:01;1.25;;;1.00;;
39880;SDS011;25554;44.954;10.068;2022-07-10T15:18:27;1.50;;;0.98;;
39880;SDS011;25554;44.954;10.068;2022-07-10T15:20:54;1.48;;;1.08;;
39880;SDS011;25554;44.954;10.068;2022-07-10T15:23:21;1.25;;;0.90;;
39880;SDS011;25554;44.954;10.068;2022-07-10T15:25:48;2.60;;;0.90;;
39880;SDS011;25554;44.954;10.068;2022-07-10T15:28:14;1.15;;;0.70;;
39880;SDS011;25554;44.954;10.068;2022-07-10T15:30:40;1.52;;;0.77;;
39880;SDS011;25554;44.954;10.068;2022-07-10T15:33:08;2.47;;;0.90;;
39880;SDS011;25554;44.954;10.068;2022-07-10T15:35:35;1.20;;;1.00;;
39880;SDS011;25554;44.954;10.068;2022-07-10T15:38:01;1.98;;;0.88;;
39880;SDS011;25554;44.954;10.068;2022-07-10T15:40:29;0.93;;;0.80;;
39880;SDS011;25554;44.954;10.068;2022-07-10T15:42:56;4.30;;;0.90;;
39880;SDS011;25554;44.954;10.068;2022-07-10T15:45:23;2.15;;;0.85;;
39880;SDS011;25554;44.954;10.068;2022-07-10T15:47:50;2.40;;;0.82;;
39880;SDS011;25554;44.954;10.068;2022-07-10T15:50:16;2.17;;;0.98;;
39880;SDS011;25554;44.954;10.068;2022-07-10T15:52:43;2.88;;;1.05;;
39880;SDS011;25554;44.954;10.068;2022-07-10T15:55:11;3.47;;;1.00;;
39880;SDS011;25554;44.954;10.068;2022-07-10T15:57:39;2.72;;;0.80;;
39880;SDS011;25554;44.954;10.068;2022-07-10T16:00:06;2.53;;;0.70;;
39880;SDS011;25554;44.954;10.068;2022-07-10T16:02:34;1.30;;;0.73;;
39880;SDS011;25554;44.954;10.068;2022-07-10T16:05:02;0.70;;;0.70;;
39880;SDS011;25554;44.954;10.068;2022-07-10T16:07:29;1.00;;;0.93;;
39880;SDS011;25554;44.954;10.068;2022-07-10T16:09:55;1.20;;;0.70;;
39880;SDS011;25554;44.954;10.068;2022-07-10T16:12:22;5.22;;;1.20;;
39880;SDS011;25554;44.954;10.068;2022-07-10T16:14:49;2.08;;;0.80;;
39880;SDS011;25554;44.954;10.068;2022-07-10T16:17:16;1.30;;;0.80;;
39880;SDS011;25554;44.954;10.068;2022-07-10T16:19:43;1.20;;;1.00;;
39880;SDS011;25554;44.954;10.068;2022-07-10T16:22:12;2.67;;;1.23;;
39880;SDS011;25554;44.954;10.068;2022-07-10T16:24:38;0.70;;;0.70;;
39880;SDS011;25554;44.954;10.068;2022-07-10T16:27:25;0.80;;;0.80;;
39880;SDS011;25554;44.954;10.068;2022-07-10T16:29:51;0.95;;;0.70;;
39880;SDS011;25554;44.954;10.068;2022-07-10T16:32:18;1.73;;;0.98;;
39880;SDS011;25554;44.954;10.068;2022-07-10T16:34:45;2.08;;;0.77;;
39880;SDS011;25554;44.954;10.068;2022-07-10T16:37:12;0.85;;;0.65;;
39880;SDS011;25554;44.954;10.068;2022-07-10T16:39:39;2.03;;;0.57;;
39880;SDS011;25554;44.954;10.068;2022-07-10T16:42:05;3.45;;;0.80;;
39880;SDS011;25554;44.954;10.068;2022-07-10T16:44:32;2.75;;;1.30;;
39880;SDS011;25554;44.954;10.068;2022-07-10T16:46:58;1.83;;;1.60;;
39880;SDS011;25554;44.954;10.068;2022-07-10T16:49:25;1.83;;;0.80;;
39880;SDS011;25554;44.954;10.068;2022-07-10T16:51:52;3.25;;;0.80;;
39880;SDS011;25554;44.954;10.068;2022-07-10T16:54:18;1.05;;;0.77;;
39880;SDS011;25554;44.954;10.068;2022-07-10T16:56:45;1.15;;;0.65;;
39880;SDS011;25554;44.954;10.068;2022-07-10T16:59:12;0.60;;;0.60;;
39880;SDS011;25554;44.954;10.068;2022-07-10T17:01:38;2.00;;;1.17;;
39880;SDS011;25554;44.954;10.068;2022-07-10T17:04:05;1.45;;;0.88;;
39880;SDS011;25554;44.954;10.068;2022-07-10T17:06:32;1.20;;;0.70;;
39880;SDS011;25554;44.954;10.068;2022-07-10T17:08:58;0.80;;;0.70;;
39880;SDS011;25554;44.954;10.068;2022-07-10T17:11:25;1.52;;;0.80;;
39880;SDS011;25554;44.954;10.068;2022-07-10T17:13:52;1.15;;;0.70;;
39880;SDS011;25554;44.954;10.068;2022-07-10T17:16:18;1.60;;;0.70;;
39880;SDS011;25554;44.954;10.068;2022-07-10T17:18:45;1.38;;;1.25;;
39880;SDS011;25554;44.954;10.068;2022-07-10T17:21:11;4.80;;;1.67;;
39880;SDS011;25554;44.954;10.068;2022-07-10T17:23:42;1.50;;;1.40;;
39880;SDS011;25554;44.954;10.068;2022-07-10T17:26:08;3.95;;;3.65;;
39880;SDS011;25554;44.954;10.068;2022-07-10T17:28:35;4.20;;;3.22;;
39880;SDS011;25554;44.954;10.068;2022-07-10T17:31:02;1.38;;;1.27;;
39880;SDS011;25554;44.954;10.068;2022-07-10T17:33:28;3.58;;;3.28;;
39880;SDS011;25554;44.954;10.068;2022-07-10T17:35:55;1.60;;;1.40;;